This is the latest recevied weather packets stored in our database for station/object DB0PDF-L4. If no packets are shown the sender has not sent any weather packets the latest 10 day(s).
| Time | Temp. | Humidity | Pressure | Rain* | Wind** | Luminosity | Snow |
|---|---|---|---|---|---|---|---|
| 1777211989 | 28.33° C | 18% | 1015 hPa | - | - | - | - |
| 1777206582 | 24.44° C | 19% | 1016 hPa | - | - | - | - |
| 1777204780 | 25.56° C | 20% | 1016 hPa | - | - | - | - |
| 1777202977 | 25° C | 21% | 1016 hPa | - | - | - | - |
| 1777199373 | 22.22° C | 28% | 1017 hPa | - | - | - | - |
| 1777195769 | 22.78° C | 29% | 1017 hPa | - | - | - | - |
| 1777194868 | 22.78° C | 29% | 1017 hPa | - | - | - | - |
| 1777193966 | 22.78° C | 29% | 1017 hPa | - | - | - | - |
| 1777193065 | 21.67° C | 31% | 1017 hPa | - | - | - | - |
| 1777192164 | 21.11° C | 31% | 1017 hPa | - | - | - | - |
| 1777191263 | 20.56° C | 33% | 1017 hPa | - | - | - | - |
| 1777190362 | 20.56° C | 34% | 1016 hPa | - | - | - | - |
| 1777189461 | 19.44° C | 35% | 1017 hPa | - | - | - | - |
| 1777188560 | 18.89° C | 36% | 1016 hPa | - | - | - | - |
| 1777187659 | 18.33° C | 37% | 1016 hPa | - | - | - | - |
| 1777185856 | 18.33° C | 38% | 1016 hPa | - | - | - | - |
| 1777184955 | 16.67° C | 40% | 1016 hPa | - | - | - | - |
| 1777183153 | 13.89° C | 44% | 1016 hPa | - | - | - | - |
| 1777182252 | 12.22° C | 47% | 1016 hPa | - | - | - | - |
| 1777181351 | 10.56° C | 50% | 1015 hPa | - | - | - | - |
| 1777180450 | 9.44° C | 52% | 1015 hPa | - | - | - | - |
| 1777179549 | 9.44° C | 52% | 1015 hPa | - | - | - | - |
| 1777178648 | 8.33° C | 55% | 1015 hPa | - | - | - | - |
| 1777177746 | 7.78° C | 57% | 1015 hPa | - | - | - | - |
| 1777176845 | 7.22° C | 57% | 1015 hPa | - | - | - | - |
* Rain since midnight (hover to see other rain measurements)
** Current wind speed in m/s (hover to see current wind gust speed)